createdAt,value
2022-12-16T00:01:29.564Z,14.30
2022-12-16T00:04:00.040Z,13.27
2022-12-16T00:06:33.740Z,13.83
2022-12-16T00:09:04.007Z,12.87
2022-12-16T00:11:42.967Z,13.87
2022-12-16T00:14:11.502Z,12.57
2022-12-16T00:16:41.252Z,12.50
2022-12-16T00:19:10.034Z,12.57
2022-12-16T00:21:38.499Z,13.43
2022-12-16T00:24:06.985Z,12.13
2022-12-16T00:26:37.278Z,14.47
2022-12-16T00:29:06.639Z,11.60
2022-12-16T00:31:36.118Z,11.63
2022-12-16T00:34:06.998Z,10.97
2022-12-16T00:36:37.221Z,12.20
2022-12-16T00:39:05.826Z,10.60
2022-12-16T00:41:36.294Z,12.67
2022-12-16T00:44:05.281Z,16.13
2022-12-16T00:46:33.939Z,13.80
2022-12-16T00:49:02.490Z,14.03
2022-12-16T00:51:32.672Z,13.80
2022-12-16T00:54:01.130Z,11.73
2022-12-16T00:56:29.421Z,11.17
2022-12-16T00:58:57.934Z,12.40
2022-12-16T01:01:26.704Z,13.60
2022-12-16T01:03:58.267Z,13.07
2022-12-16T01:06:26.801Z,13.83
2022-12-16T01:08:56.574Z,11.00
2022-12-16T01:11:24.961Z,14.40
2022-12-16T01:13:55.321Z,12.77
2022-12-16T01:16:25.107Z,11.73
2022-12-16T01:18:55.399Z,11.13
2022-12-16T01:21:24.475Z,10.27
2022-12-16T01:23:54.887Z,9.63
2022-12-16T01:26:25.139Z,11.90
2022-12-16T01:28:55.685Z,11.20
2022-12-16T01:31:25.599Z,8.50
2022-12-16T01:33:54.345Z,9.27
2022-12-16T01:36:23.625Z,10.00
2022-12-16T01:38:51.955Z,10.87
2022-12-16T01:41:20.479Z,8.93
2022-12-16T01:43:50.751Z,10.00
2022-12-16T01:46:24.905Z,10.13
2022-12-16T01:48:59.078Z,10.30
2022-12-16T01:51:35.667Z,10.33
2022-12-16T01:54:08.879Z,9.77
2022-12-16T01:56:41.587Z,10.37
2022-12-16T01:59:13.320Z,9.60
2022-12-16T02:01:41.819Z,9.83
2022-12-16T02:04:10.513Z,10.30
2022-12-16T02:06:39.231Z,11.70
2022-12-16T02:09:11.338Z,9.97
2022-12-16T02:12:19.020Z,10.27
2022-12-16T02:15:15.453Z,10.33
2022-12-16T02:17:55.552Z,11.93
2022-12-16T02:21:13.921Z,10.53
2022-12-16T02:24:25.287Z,10.20
2022-12-16T02:27:38.775Z,16.73
2022-12-16T02:30:40.397Z,11.80
2022-12-16T02:33:29.093Z,12.70
2022-12-16T02:36:09.344Z,11.77
2022-12-16T02:38:50.190Z,12.63
2022-12-16T02:41:36.339Z,10.43
2022-12-16T02:44:07.381Z,11.23
2022-12-16T02:46:44.028Z,11.87
2022-12-16T02:49:49.379Z,10.53
2022-12-16T02:52:23.242Z,10.37
2022-12-16T02:54:55.478Z,9.70
2022-12-16T02:58:00.388Z,9.70
2022-12-16T03:00:37.224Z,10.80
2022-12-16T03:03:11.044Z,10.97
2022-12-16T03:05:45.649Z,9.40
2022-12-16T03:08:17.153Z,10.87
2022-12-16T03:10:59.218Z,10.77
2022-12-16T03:13:34.346Z,10.93
2022-12-16T03:16:04.971Z,10.63
2022-12-16T03:18:36.161Z,10.13
2022-12-16T03:21:08.199Z,10.00
2022-12-16T03:23:44.467Z,12.17
2022-12-16T03:26:22.902Z,13.37
2022-12-16T03:28:56.626Z,12.47
2022-12-16T03:31:33.993Z,11.33
2022-12-16T03:34:12.625Z,11.63
2022-12-16T03:36:45.378Z,10.93
2022-12-16T03:39:15.120Z,9.93
2022-12-16T03:41:45.722Z,11.67
2022-12-16T03:44:14.407Z,12.20
2022-12-16T03:46:42.875Z,9.50
2022-12-16T03:49:12.561Z,10.10
2022-12-16T03:51:41.102Z,11.27
2022-12-16T03:54:09.450Z,11.77
2022-12-16T03:56:37.793Z,11.37
2022-12-16T03:59:06.185Z,10.63
2022-12-16T04:01:35.795Z,11.80
2022-12-16T04:04:04.521Z,9.77
2022-12-16T04:06:36.464Z,11.03
2022-12-16T04:09:05.379Z,12.20
2022-12-16T04:11:51.793Z,12.23
2022-12-16T04:14:37.926Z,11.27
2022-12-16T04:17:24.599Z,11.57
2022-12-16T04:20:10.208Z,11.47
2022-12-16T04:23:00.737Z,12.10
2022-12-16T04:25:33.166Z,11.13
2022-12-16T04:28:02.686Z,11.47
2022-12-16T04:30:35.149Z,11.73
2022-12-16T04:33:26.266Z,11.70
2022-12-16T04:36:11.895Z,11.80
2022-12-16T04:39:00.038Z,11.10
2022-12-16T04:41:45.763Z,12.67
2022-12-16T04:44:33.337Z,12.23
2022-12-16T04:47:19.472Z,13.63
2022-12-16T04:50:05.088Z,10.67
2022-12-16T04:52:51.015Z,11.23
2022-12-16T04:55:38.327Z,13.30
2022-12-16T04:58:24.595Z,13.67
2022-12-16T05:01:10.716Z,11.93
2022-12-16T05:03:56.670Z,11.37
2022-12-16T05:06:50.782Z,12.70
2022-12-16T05:09:36.462Z,13.80
2022-12-16T05:12:24.094Z,13.40
2022-12-16T05:15:10.002Z,12.30
2022-12-16T05:17:55.610Z,11.87
2022-12-16T05:20:52.618Z,13.50
2022-12-16T05:23:39.928Z,15.77
2022-12-16T05:26:25.438Z,14.40
2022-12-16T05:29:12.713Z,15.63
2022-12-16T05:32:05.163Z,15.03
2022-12-16T05:34:50.836Z,15.60
2022-12-16T05:37:36.637Z,16.30
2022-12-16T05:40:23.328Z,14.87
2022-12-16T05:43:13.349Z,17.13
2022-12-16T05:46:05.692Z,18.17
2022-12-16T05:48:51.538Z,16.40
2022-12-16T05:51:37.229Z,15.13
2022-12-16T05:54:25.921Z,15.90
2022-12-16T05:57:11.621Z,16.77
2022-12-16T05:59:58.921Z,17.47
2022-12-16T06:02:46.222Z,16.00
2022-12-16T06:05:37.616Z,16.17
2022-12-16T06:08:23.540Z,15.53
2022-12-16T06:11:09.620Z,19.07
2022-12-16T06:13:55.544Z,14.70
2022-12-16T06:16:41.204Z,17.30
2022-12-16T06:19:29.151Z,14.30
2022-12-16T06:22:26.158Z,14.50
2022-12-16T06:25:15.327Z,14.20
2022-12-16T06:28:01.847Z,14.43
2022-12-16T06:30:47.469Z,13.70
2022-12-16T06:33:33.339Z,14.90
2022-12-16T06:36:21.082Z,16.93
2022-12-16T06:39:06.644Z,12.77
2022-12-16T06:41:54.329Z,15.07
2022-12-16T06:44:40.416Z,15.57
2022-12-16T06:47:26.853Z,13.20
2022-12-16T06:50:13.699Z,14.30
2022-12-16T06:52:59.111Z,15.37
2022-12-16T06:55:45.244Z,15.27
2022-12-16T06:58:31.386Z,18.57
2022-12-16T07:01:17.509Z,13.37
2022-12-16T07:04:03.569Z,15.37
2022-12-16T07:06:49.264Z,14.40
2022-12-16T07:09:36.697Z,14.33
2022-12-16T07:12:22.798Z,13.10
2022-12-16T07:15:08.485Z,14.37
2022-12-16T07:17:55.500Z,15.07
2022-12-16T07:20:55.639Z,16.97
2022-12-16T07:23:40.466Z,15.17
2022-12-16T07:26:27.679Z,14.40
2022-12-16T07:29:13.675Z,14.17
2022-12-16T07:31:59.266Z,14.97
2022-12-16T07:34:49.999Z,15.47
2022-12-16T07:37:36.121Z,14.70
2022-12-16T07:40:22.367Z,16.47
2022-12-16T07:43:09.527Z,15.77
2022-12-16T07:45:55.168Z,15.03
2022-12-16T07:48:43.307Z,16.73
2022-12-16T07:51:28.825Z,17.57
2022-12-16T07:54:15.887Z,15.73
2022-12-16T07:57:02.027Z,16.57
2022-12-16T07:59:49.499Z,19.83
2022-12-16T08:02:36.358Z,15.97
2022-12-16T08:05:22.712Z,16.53
2022-12-16T08:08:08.595Z,17.83
2022-12-16T08:10:55.351Z,16.97
2022-12-16T08:13:41.379Z,18.17
2022-12-16T08:16:28.290Z,20.63
2022-12-16T08:19:13.966Z,18.53
2022-12-16T08:22:02.165Z,17.00
2022-12-16T08:24:53.293Z,17.93
2022-12-16T08:27:39.636Z,18.60
2022-12-16T08:30:26.980Z,19.43
2022-12-16T08:33:19.265Z,16.17
2022-12-16T08:36:06.174Z,16.63
2022-12-16T08:38:52.186Z,16.70
2022-12-16T08:41:38.927Z,16.90
2022-12-16T08:44:25.029Z,20.93
2022-12-16T08:47:10.583Z,20.47
2022-12-16T08:50:01.481Z,17.73
2022-12-16T08:52:48.800Z,20.50
2022-12-16T08:55:34.642Z,18.80
2022-12-16T08:58:20.458Z,19.03
2022-12-16T09:01:07.829Z,19.93
2022-12-16T09:03:53.824Z,20.00
2022-12-16T09:06:41.417Z,19.50
2022-12-16T09:09:27.397Z,19.17
2022-12-16T09:12:13.403Z,20.97
2022-12-16T09:14:59.188Z,18.27
2022-12-16T09:17:45.247Z,16.73
2022-12-16T09:20:31.036Z,18.70
2022-12-16T09:23:22.152Z,21.23
2022-12-16T09:26:08.199Z,19.33
2022-12-16T09:28:54.417Z,18.07
2022-12-16T09:31:40.686Z,18.90
2022-12-16T09:34:26.518Z,18.63
2022-12-16T09:37:12.072Z,21.50
2022-12-16T09:39:59.263Z,18.63
2022-12-16T09:42:58.410Z,19.83
2022-12-16T09:45:53.582Z,18.07
2022-12-16T09:48:48.948Z,17.73
2022-12-16T09:51:35.293Z,18.73
2022-12-16T09:54:21.793Z,17.30
2022-12-16T09:57:11.198Z,16.77
2022-12-16T10:00:00.482Z,19.37
2022-12-16T10:02:46.763Z,21.23
2022-12-16T10:05:38.755Z,23.03
2022-12-16T10:08:38.457Z,23.70
2022-12-16T10:11:32.670Z,21.50
2022-12-16T10:14:24.735Z,20.93
2022-12-16T10:17:28.789Z,20.63
2022-12-16T10:20:22.956Z,17.93
2022-12-16T10:23:15.461Z,24.73
2022-12-16T10:26:09.563Z,20.53
2022-12-16T10:29:05.073Z,22.37
2022-12-16T10:31:54.282Z,20.13
2022-12-16T10:34:47.981Z,21.40
2022-12-16T10:37:41.143Z,20.40
2022-12-16T10:40:35.147Z,24.07
2022-12-16T10:43:25.745Z,21.00
2022-12-16T10:46:14.281Z,20.70
2022-12-16T10:49:01.977Z,22.10
2022-12-16T10:51:48.546Z,20.07
2022-12-16T10:54:57.427Z,16.83
2022-12-16T10:57:54.096Z,22.17
2022-12-16T11:00:57.971Z,21.63
2022-12-16T11:03:47.177Z,16.90
2022-12-16T11:06:49.548Z,18.00
2022-12-16T11:09:43.924Z,15.50
2022-12-16T11:12:45.792Z,17.33
2022-12-16T11:15:42.384Z,20.47
2022-12-16T11:18:32.693Z,20.80
2022-12-16T11:21:31.007Z,18.70
2022-12-16T11:24:37.385Z,21.87
2022-12-16T11:27:28.689Z,17.80
2022-12-16T11:30:16.054Z,19.97
2022-12-16T11:33:06.102Z,20.97
2022-12-16T11:35:56.147Z,19.07
2022-12-16T11:38:47.135Z,20.47
2022-12-16T11:41:48.132Z,18.77
2022-12-16T11:44:40.599Z,21.53
2022-12-16T11:47:37.250Z,18.47
2022-12-16T11:50:32.250Z,18.77
2022-12-16T11:53:19.762Z,19.17
2022-12-16T11:56:16.088Z,16.33
2022-12-16T11:59:07.659Z,20.37
2022-12-16T12:02:04.229Z,17.77
2022-12-16T12:04:50.108Z,15.83
2022-12-16T12:07:48.865Z,16.90
2022-12-16T12:10:57.428Z,17.57
2022-12-16T12:14:16.368Z,17.63
2022-12-16T12:17:19.478Z,16.30
2022-12-16T12:20:20.586Z,20.20
2022-12-16T12:23:06.213Z,17.80
2022-12-16T12:26:04.348Z,16.87
2022-12-16T12:29:06.316Z,18.00
2022-12-16T12:32:07.183Z,20.50
2022-12-16T12:35:01.729Z,20.53
2022-12-16T12:37:57.097Z,17.70
2022-12-16T12:40:58.125Z,19.73
2022-12-16T12:43:57.210Z,18.30
2022-12-16T12:46:53.165Z,18.83
2022-12-16T12:49:53.403Z,15.33
2022-12-16T12:53:02.040Z,16.47
2022-12-16T12:55:59.592Z,17.60
2022-12-16T12:58:51.298Z,17.03
2022-12-16T13:01:39.701Z,17.90
2022-12-16T13:04:33.464Z,16.60
2022-12-16T13:07:20.448Z,19.97
2022-12-16T13:10:52.790Z,16.57
2022-12-16T13:13:51.909Z,16.53
2022-12-16T13:17:26.078Z,18.40
2022-12-16T13:20:16.772Z,17.63
2022-12-16T13:23:04.839Z,21.70
2022-12-16T13:26:09.970Z,20.17
2022-12-16T13:29:12.529Z,17.47
2022-12-16T13:32:19.593Z,16.43
2022-12-16T13:35:05.586Z,21.70
2022-12-16T13:37:51.131Z,18.20
2022-12-16T13:40:39.130Z,18.90
2022-12-16T13:43:57.543Z,19.63
2022-12-16T13:46:58.680Z,16.07
2022-12-16T13:50:12.387Z,18.50
2022-12-16T13:53:05.417Z,21.40
2022-12-16T13:55:53.964Z,17.67
2022-12-16T13:58:49.795Z,20.20
2022-12-16T14:01:40.056Z,16.53
2022-12-16T14:04:30.156Z,17.20
2022-12-16T14:07:24.498Z,18.93
2022-12-16T14:10:10.498Z,23.17
2022-12-16T14:13:21.746Z,23.00
2022-12-16T14:16:19.063Z,19.93
2022-12-16T14:19:27.445Z,18.07
2022-12-16T14:22:22.414Z,20.67
2022-12-16T14:25:08.021Z,18.00
2022-12-16T14:27:54.702Z,18.87
2022-12-16T14:30:42.519Z,20.03
2022-12-16T14:33:37.506Z,21.53
2022-12-16T14:36:40.047Z,17.43
2022-12-16T14:39:31.357Z,18.67
2022-12-16T14:42:17.252Z,20.87
2022-12-16T14:45:06.044Z,19.70
2022-12-16T14:47:58.220Z,20.73
2022-12-16T14:50:46.878Z,18.73
2022-12-16T14:53:35.817Z,20.73
2022-12-16T14:56:36.762Z,17.87
2022-12-16T14:59:32.307Z,18.07
2022-12-16T15:02:45.101Z,14.70
2022-12-16T15:05:31.942Z,17.63
2022-12-16T15:08:18.546Z,17.67
2022-12-16T15:11:04.611Z,17.60
2022-12-16T15:13:52.971Z,17.00
2022-12-16T15:16:48.013Z,16.80
2022-12-16T15:19:39.331Z,18.40
2022-12-16T15:22:24.955Z,17.67
2022-12-16T15:25:10.663Z,17.17
2022-12-16T15:27:56.666Z,15.03
2022-12-16T15:31:02.546Z,18.53
2022-12-16T15:33:50.337Z,20.23
2022-12-16T15:36:54.949Z,17.63
2022-12-16T15:39:42.955Z,16.43
2022-12-16T15:42:39.662Z,23.80
2022-12-16T15:45:43.999Z,20.10
2022-12-16T15:48:36.814Z,21.47
2022-12-16T15:51:22.219Z,17.50
2022-12-16T15:54:20.894Z,18.87
2022-12-16T15:57:07.012Z,19.37
2022-12-16T16:00:09.554Z,22.47
2022-12-16T16:02:55.416Z,21.07
2022-12-16T16:05:43.812Z,18.40
2022-12-16T16:08:30.493Z,19.97
2022-12-16T16:11:16.346Z,21.63
2022-12-16T16:14:07.191Z,21.30
2022-12-16T16:16:56.589Z,18.00
2022-12-16T16:19:48.053Z,20.60
2022-12-16T16:22:41.725Z,19.13
2022-12-16T16:25:30.833Z,20.30
2022-12-16T16:28:16.509Z,17.33
2022-12-16T16:31:09.799Z,16.53
2022-12-16T16:33:56.377Z,20.07
2022-12-16T16:36:41.805Z,17.97
2022-12-16T16:39:34.598Z,16.73
2022-12-16T16:42:52.989Z,16.53
2022-12-16T16:45:38.954Z,17.23
2022-12-16T16:48:29.273Z,13.50
2022-12-16T16:51:16.264Z,13.67
2022-12-16T16:54:03.809Z,14.83
2022-12-16T16:57:04.784Z,14.77
2022-12-16T16:59:50.322Z,16.70
2022-12-16T17:02:43.511Z,16.77
2022-12-16T17:05:29.982Z,14.63
2022-12-16T17:08:18.229Z,16.73
2022-12-16T17:11:05.662Z,16.27
2022-12-16T17:13:51.619Z,17.43
2022-12-16T17:16:37.346Z,15.20
2022-12-16T17:19:31.723Z,16.50
2022-12-16T17:22:27.015Z,15.67
2022-12-16T17:25:12.666Z,14.83
2022-12-16T17:28:05.329Z,12.63
2022-12-16T17:30:52.383Z,15.73
2022-12-16T17:33:50.331Z,12.93
2022-12-16T17:36:41.771Z,14.70
2022-12-16T17:39:29.216Z,12.70
2022-12-16T17:42:14.675Z,12.20
2022-12-16T17:45:00.176Z,12.23
2022-12-16T17:47:55.973Z,12.57
2022-12-16T17:50:41.644Z,13.13
2022-12-16T17:53:29.243Z,13.27
2022-12-16T17:56:14.559Z,11.97
2022-12-16T17:59:10.926Z,14.17
2022-12-16T18:02:08.356Z,14.67
2022-12-16T18:04:55.439Z,9.70
2022-12-16T18:07:40.201Z,12.33
2022-12-16T18:10:28.877Z,14.90
2022-12-16T18:13:14.762Z,10.83
2022-12-16T18:16:00.562Z,12.33
2022-12-16T18:18:47.890Z,12.67
2022-12-16T18:21:34.708Z,11.23
2022-12-16T18:24:24.690Z,10.03
2022-12-16T18:27:11.723Z,10.73
2022-12-16T18:29:57.079Z,11.13
2022-12-16T18:32:42.663Z,11.93
2022-12-16T18:35:37.971Z,12.13
2022-12-16T18:38:25.029Z,13.80
2022-12-16T18:41:25.399Z,12.87
2022-12-16T18:44:11.070Z,18.03
2022-12-16T18:46:56.496Z,15.30
2022-12-16T18:49:42.007Z,13.70
2022-12-16T18:52:34.961Z,13.00
2022-12-16T18:55:35.494Z,15.10
2022-12-16T18:58:49.797Z,13.17
2022-12-16T19:01:27.831Z,12.37
2022-12-16T19:04:14.651Z,11.33
2022-12-16T19:07:00.198Z,9.60
2022-12-16T19:09:45.665Z,11.50
2022-12-16T19:12:40.395Z,9.93
2022-12-16T19:15:26.952Z,10.97
2022-12-16T19:18:22.066Z,12.27
2022-12-16T19:21:11.019Z,8.90
2022-12-16T19:23:56.483Z,10.60
2022-12-16T19:26:42.207Z,9.83
2022-12-16T19:29:29.281Z,14.90
2022-12-16T19:32:14.828Z,11.00
2022-12-16T19:35:00.233Z,10.87
2022-12-16T19:37:47.799Z,11.00
2022-12-16T19:40:33.651Z,10.03
2022-12-16T19:43:34.783Z,11.40
2022-12-16T19:46:22.201Z,11.40
2022-12-16T19:49:08.534Z,14.67
2022-12-16T19:51:51.812Z,12.17
2022-12-16T19:54:37.330Z,14.00
2022-12-16T19:57:22.826Z,9.57
2022-12-16T20:00:26.208Z,9.53
2022-12-16T20:03:15.343Z,12.20
2022-12-16T20:06:15.971Z,9.43
2022-12-16T20:09:01.477Z,9.37
2022-12-16T20:11:46.709Z,10.67
2022-12-16T20:14:44.437Z,10.83
2022-12-16T20:17:29.773Z,10.90
2022-12-16T20:20:27.449Z,8.77
2022-12-16T20:23:14.417Z,9.80
2022-12-16T20:26:00.002Z,9.40
2022-12-16T20:28:57.797Z,8.83
2022-12-16T20:31:43.481Z,11.13
2022-12-16T20:34:38.450Z,10.43
2022-12-16T20:37:25.522Z,9.83
2022-12-16T20:40:18.869Z,10.63
2022-12-16T20:43:11.194Z,9.07
2022-12-16T20:45:56.789Z,9.70
2022-12-16T20:48:42.223Z,10.63
2022-12-16T20:51:27.871Z,10.40
2022-12-16T20:54:14.747Z,10.70
2022-12-16T20:57:14.046Z,11.00
2022-12-16T21:00:00.452Z,10.33
2022-12-16T21:02:47.135Z,9.70
2022-12-16T21:05:33.354Z,10.13
2022-12-16T21:08:18.674Z,10.97
2022-12-16T21:11:04.553Z,13.00
2022-12-16T21:13:50.525Z,11.33
2022-12-16T21:16:35.841Z,10.73
2022-12-16T21:19:21.374Z,10.03
2022-12-16T21:22:12.623Z,9.83
2022-12-16T21:24:58.273Z,10.63
2022-12-16T21:27:46.445Z,8.97
2022-12-16T21:30:43.506Z,9.27
2022-12-16T21:33:40.577Z,11.63
2022-12-16T21:36:26.575Z,10.63
2022-12-16T21:39:13.167Z,9.43
2022-12-16T21:41:58.811Z,11.47
2022-12-16T21:44:45.382Z,13.80
2022-12-16T21:47:30.849Z,13.67
2022-12-16T21:50:16.148Z,11.23
2022-12-16T21:53:01.759Z,10.77
2022-12-16T21:55:47.454Z,10.23
2022-12-16T21:58:32.767Z,11.67
2022-12-16T22:01:19.941Z,11.07
2022-12-16T22:04:05.411Z,13.37
2022-12-16T22:06:50.782Z,10.33
2022-12-16T22:09:37.792Z,10.63
2022-12-16T22:12:24.088Z,11.93
2022-12-16T22:15:09.628Z,11.83
2022-12-16T22:17:58.665Z,12.10
2022-12-16T22:20:58.990Z,14.10
2022-12-16T22:23:56.133Z,16.57
2022-12-16T22:26:41.540Z,15.83
2022-12-16T22:29:27.162Z,14.47
2022-12-16T22:32:12.898Z,10.37
2022-12-16T22:35:06.371Z,12.17
2022-12-16T22:37:51.812Z,10.67
2022-12-16T22:40:45.704Z,12.17
2022-12-16T22:43:31.135Z,9.83
2022-12-16T22:46:18.091Z,10.73
2022-12-16T22:49:05.292Z,13.10
2022-12-16T22:51:52.259Z,9.97
2022-12-16T22:54:37.661Z,12.40
2022-12-16T22:57:23.179Z,15.40
2022-12-16T23:00:08.923Z,10.33
2022-12-16T23:02:56.858Z,11.43
2022-12-16T23:05:42.415Z,11.40
2022-12-16T23:08:29.954Z,10.97
2022-12-16T23:11:15.832Z,12.87
2022-12-16T23:14:01.264Z,10.97
2022-12-16T23:16:47.470Z,11.37
2022-12-16T23:19:33.008Z,11.63
2022-12-16T23:22:18.395Z,11.77
2022-12-16T23:25:05.228Z,10.50
2022-12-16T23:27:50.744Z,11.87
2022-12-16T23:30:37.916Z,10.03
2022-12-16T23:33:23.319Z,10.67
2022-12-16T23:36:17.726Z,11.23
2022-12-16T23:39:04.221Z,9.37
2022-12-16T23:41:51.313Z,11.53
2022-12-16T23:44:37.369Z,9.37
2022-12-16T23:47:22.736Z,10.63
2022-12-16T23:50:15.473Z,9.53
2022-12-16T23:53:01.299Z,11.23
2022-12-16T23:55:48.070Z,8.90
2022-12-16T23:58:35.864Z,15.20
